Joselito — CUHF9 — position and weather

sailwx.info

Track history (hours):
 
Tides and Currents Weather Stations Pressure Air Temp Water Temp Dewpoint Dewpoint Depression Visibility Wind Speed Wind Dir Waves Ship Positions

Joselito

Last reported at 2017-Nov-15 13:01 UTC. Time now 2017-Nov-18 01:12 UTC.
Position N 38°26' W 009°15'.

Length 14 m.

Type: Fishing. MMSI: 263402280.

Date/timePositionNaut miles runAvg speedWind from/ knotsBaromVisibWave heightAir tempDewpointWater temp
2017-Nov-15 13:01N 38°26' W 009°15'0 7.5
2017-Nov-15 13:00N 38°26' W 009°15'3 6.8
2017-Nov-15 12:30N 38°24' W 009°11'4 7.6
2017-Nov-15 12:00N 38°26' W 009°07'  
2017-Nov-08 07:17N 38°31' W 009°17'1 3.9
2017-Nov-08 07:00N 38°30' W 009°18'1 1.4
2017-Nov-08 06:30N 38°29' W 009°18'0 0.9
2017-Nov-08 05:58N 38°28' W 009°17'0 1.0
2017-Nov-08 05:30N 38°28' W 009°17'  
Track history (hours):
 
Tides and Currents Weather Stations Pressure Air Temp Water Temp Dewpoint Dewpoint Depression Visibility Wind Speed Wind Dir Waves Ship Positions

Joselito

Last reported at 2017-Nov-15 13:01 UTC. Time now 2017-Nov-18 01:12 UTC.
Position N 38°26' W 009°15'.

Length 14 m.

Type: Fishing. MMSI: 263402280.

Date/timePositionNaut miles runAvg speedWind from/ knotsBaromVisibWave heightAir tempDewpointWater temp
2017-Nov-15 13:01N 38°26' W 009°15'0 7.5
2017-Nov-15 13:00N 38°26' W 009°15'3 6.8
2017-Nov-15 12:30N 38°24' W 009°11'4 7.6
2017-Nov-15 12:00N 38°26' W 009°07'  
2017-Nov-08 07:17N 38°31' W 009°17'1 3.9
2017-Nov-08 07:00N 38°30' W 009°18'1 1.4
2017-Nov-08 06:30N 38°29' W 009°18'0 0.9
2017-Nov-08 05:58N 38°28' W 009°17'0 1.0
2017-Nov-08 05:30N 38°28' W 009°17'  

Dump ship's entire track history